Time;durP1;ratioP1;P1;durP2;ratioP2;P2;SDS_P1;SDS_P2;PMS_P1;PMS_P2;Temp;Humidity;BMP_temperature;BMP_pressure;BME280_temperature;BME280_humidity;BME280_pressure;Samples;Min_cycle;Max_cycle;Signal;HPM_P1;HPM_P2
2022/01/08 00:09:04;;;;;;;15.03;7.03;;;;;;;4.87;95.71;94938.75;5035991;28;20389;-90
2022/01/08 00:11:31;;;;;;;18.23;9.90;;;;;;;4.65;97.61;94941.84;5035849;28;20446;-90
2022/01/08 00:13:58;;;;;;;6.10;5.47;;;;;;;4.61;97.18;94940.34;5036371;28;20458;-90
2022/01/08 00:16:25;;;;;;;11.50;7.37;;;;;;;4.59;97.89;94948.22;5036301;28;20459;-90
2022/01/08 00:18:52;;;;;;;8.63;6.10;;;;;;;4.65;97.42;94945.28;5035732;28;20454;-89
2022/01/08 00:21:20;;;;;;;10.83;6.00;;;;;;;4.63;97.30;94946.31;5035428;28;21000;-90
2022/01/08 00:23:47;;;;;;;5.87;4.70;;;;;;;4.50;97.49;94947.97;5035977;28;20458;-90
2022/01/08 00:26:15;;;;;;;6.37;5.27;;;;;;;4.49;97.71;94949.72;5036213;28;20465;-89
2022/01/08 00:28:43;;;;;;;5.17;4.67;;;;;;;4.47;98.75;94942.94;5036054;28;20458;-90
2022/01/08 00:31:10;;;;;;;9.30;6.73;;;;;;;4.58;97.74;94933.56;5036181;28;20545;-89
2022/01/08 00:33:37;;;;;;;6.80;5.60;;;;;;;4.58;98.36;94932.72;5036214;28;20854;-90
2022/01/08 00:36:05;;;;;;;6.13;4.50;;;;;;;4.45;98.68;94930.06;5036073;28;20447;-90
2022/01/08 00:48:38;;;;;;;9.27;6.23;;;;;;;4.65;96.82;94916.69;5035078;28;20421;-90
2022/01/08 00:51:05;;;;;;;5.80;5.20;;;;;;;4.76;97.12;94921.22;5035916;28;20447;-90
2022/01/08 00:53:32;;;;;;;5.77;4.63;;;;;;;4.87;96.32;94923.16;5035945;28;20918;-90
2022/01/08 00:55:59;;;;;;;5.83;5.30;;;;;;;5.04;95.94;94922.13;5035345;28;20448;-90
2022/01/08 00:58:27;;;;;;;4.70;4.00;;;;;;;4.98;95.35;94921.56;5035150;28;20446;-90
2022/01/08 01:00:54;;;;;;;5.43;3.60;;;;;;;4.82;95.53;94915.63;5035653;28;20869;-90
2022/01/08 01:03:21;;;;;;;6.27;5.07;;;;;;;4.68;96.92;94918.28;5035469;28;20451;-90
2022/01/08 01:05:49;;;;;;;5.43;4.30;;;;;;;4.62;97.49;94922.06;5035086;28;20452;-90
2022/01/08 01:08:16;;;;;;;5.10;4.57;;;;;;;4.61;97.64;94910.00;5034928;28;20454;-89
2022/01/08 01:10:43;;;;;;;4.93;4.43;;;;;;;4.66;97.17;94902.78;5035339;28;20438;-90
2022/01/08 01:13:10;;;;;;;4.13;3.73;;;;;;;4.67;97.93;94906.19;5035580;28;20450;-90
2022/01/08 01:15:37;;;;;;;6.90;5.20;;;;;;;4.68;97.08;94897.47;5034821;28;20460;-90
2022/01/08 01:18:05;;;;;;;5.70;4.10;;;;;;;4.81;97.33;94906.16;5035264;28;20450;-90
2022/01/08 01:20:32;;;;;;;10.87;6.30;;;;;;;4.76;97.87;94899.59;5035125;28;20497;-90
2022/01/08 01:23:07;;;;;;;6.33;5.43;;;;;;;4.94;96.38;94896.69;5034811;28;20484;-90
2022/01/08 01:25:37;;;;;;;5.90;4.67;;;;;;;5.08;96.73;94897.56;5034861;28;20486;-90
2022/01/08 01:28:16;;;;;;;7.53;5.60;;;;;;;5.05;95.74;94898.59;5035198;28;20501;-90
2022/01/08 01:41:06;;;;;;;5.73;4.00;;;;;;;4.88;96.46;94886.66;5034868;28;20476;-90
2022/01/08 01:47:33;;;;;;;5.20;4.70;;;;;;;4.53;98.15;94881.06;4973909;28;20916;-90
2022/01/08 01:50:00;;;;;;;5.87;5.13;;;;;;;4.52;99.05;94875.94;4974542;28;20462;-90
2022/01/08 01:52:28;;;;;;;4.70;3.90;;;;;;;4.61;97.88;94880.56;4974006;28;20496;-90
2022/01/08 01:54:56;;;;;;;4.57;4.17;;;;;;;4.60;98.18;94879.72;4974205;28;20460;-90
2022/01/08 01:57:26;;;;;;;5.97;3.93;;;;;;;4.56;98.34;94872.22;4974068;28;20435;-90
2022/01/08 01:59:53;;;;;;;6.50;4.23;;;;;;;4.41;99.50;94875.78;4973827;28;20480;-89
2022/01/08 02:02:19;;;;;;;6.33;4.60;;;;;;;4.37;99.93;94871.69;4974478;28;20485;-90
2022/01/08 02:04:46;;;;;;;4.77;3.87;;;;;;;4.30;99.42;94866.84;4942032;28;20448;-90
2022/01/08 02:07:13;;;;;;;6.70;5.10;;;;;;;4.26;100.00;94869.75;4973783;28;20440;-90
2022/01/08 02:09:40;;;;;;;4.80;3.70;;;;;;;4.15;100.00;94867.81;4973884;28;20453;-88
2022/01/08 02:12:15;;;;;;;4.90;4.03;;;;;;;4.14;100.00;94862.69;4973485;28;20808;-90
2022/01/08 02:14:41;;;;;;;4.20;3.80;;;;;;;4.27;100.00;94861.84;4973766;28;21058;-90
2022/01/08 02:17:09;;;;;;;8.27;4.60;;;;;;;4.29;99.68;94860.00;4976603;28;20451;-90
2022/01/08 02:19:37;;;;;;;9.60;6.27;;;;;;;4.28;100.00;94863.53;4977606;28;20447;-90
2022/01/08 02:22:09;;;;;;;5.10;3.23;;;;;;;4.23;99.93;94849.16;4974301;28;20477;-89
2022/01/08 02:24:36;;;;;;;4.67;3.63;;;;;;;4.20;100.00;94844.97;5038396;28;20810;-89
2022/01/08 02:33:46;;;;;;;4.93;4.43;;;;;;;4.16;100.00;94829.69;5036558;28;20441;-89
2022/01/08 02:36:13;;;;;;;5.60;4.73;;;;;;;4.12;100.00;94826.44;5037428;28;20905;-90
2022/01/08 02:38:41;;;;;;;4.00;3.50;;;;;;;4.34;100.00;94826.81;5038037;28;20451;-89
2022/01/08 02:41:09;;;;;;;5.57;4.43;;;;;;;4.33;100.00;94824.28;5037709;28;20489;-89
2022/01/08 02:43:41;;;;;;;4.60;4.20;;;;;;;4.33;100.00;94819.91;5038050;28;20995;-89
2022/01/08 02:46:08;;;;;;;4.10;3.70;;;;;;;4.34;100.00;94811.22;5037630;28;20532;-89
2022/01/08 02:48:36;;;;;;;4.70;3.73;;;;;;;4.39;100.00;94804.91;5037912;28;20450;-89
2022/01/08 02:57:06;;;;;;;5.23;3.67;;;;;;;4.60;100.00;94796.59;4995460;28;20464;-90
2022/01/08 02:59:34;;;;;;;3.77;3.30;;;;;;;4.79;99.58;94796.25;4996069;28;20478;-90
2022/01/08 03:02:02;;;;;;;4.40;4.00;;;;;;;4.93;98.51;94796.22;4995930;28;20481;-89
2022/01/08 03:04:29;;;;;;;5.67;3.93;;;;;;;4.80;98.13;94795.31;4996017;28;20457;-90
2022/01/08 03:06:56;;;;;;;3.93;3.50;;;;;;;4.70;98.10;94793.41;4996362;28;20552;-90
2022/01/08 03:09:23;;;;;;;5.13;4.60;;;;;;;4.81;98.18;94794.41;4996203;28;20548;-90
2022/01/08 03:11:50;;;;;;;4.63;4.10;;;;;;;4.88;97.37;94798.25;4996188;28;20508;-89
2022/01/08 03:14:19;;;;;;;5.97;5.33;;;;;;;4.78;97.33;94797.19;4996260;28;20539;-90
2022/01/08 03:16:46;;;;;;;7.80;5.60;;;;;;;4.85;97.05;94800.22;4996044;28;20444;-90
2022/01/08 03:19:14;;;;;;;4.67;4.00;;;;;;;4.86;96.61;94799.28;4996338;28;20455;-90
2022/01/08 03:21:44;;;;;;;4.33;3.57;;;;;;;4.93;96.25;94809.22;4995801;28;20935;-90
2022/01/08 03:24:17;;;;;;;4.60;3.80;;;;;;;4.93;96.83;94804.03;5009790;28;20453;-90
2022/01/08 03:26:44;;;;;;;5.77;3.80;;;;;;;4.97;96.66;94802.91;5037452;28;20508;-90
2022/01/08 03:29:11;;;;;;;5.40;3.70;;;;;;;5.04;96.07;94802.50;5036694;28;20866;-91
2022/01/08 03:31:39;;;;;;;7.37;4.43;;;;;;;4.84;96.29;94799.41;5037117;28;20451;-90
2022/01/08 03:34:07;;;;;;;3.87;3.57;;;;;;;5.00;96.73;94798.44;5037151;28;20546;-90
2022/01/08 03:36:34;;;;;;;9.13;4.80;;;;;;;5.03;95.96;94804.25;5037097;28;20534;-89
2022/01/08 03:39:01;;;;;;;4.17;3.60;;;;;;;5.16;96.23;94809.47;5036978;28;20461;-89
2022/01/08 03:41:28;;;;;;;4.67;4.20;;;;;;;4.93;96.17;94803.19;5036901;28;20494;-88
2022/01/08 03:43:55;;;;;;;3.90;3.50;;;;;;;4.77;97.88;94797.28;5037230;28;20460;-90
2022/01/08 03:46:27;;;;;;;4.97;4.33;;;;;;;4.80;97.98;94791.91;5037034;28;20446;-90
2022/01/08 03:51:41;;;;;;;3.83;2.90;;;;;;;4.57;98.77;94786.38;4976151;28;20499;-90
2022/01/08 03:54:08;;;;;;;3.60;3.30;;;;;;;4.44;99.78;94782.06;4975418;28;20458;-88
2022/01/08 03:56:35;;;;;;;6.47;5.87;;;;;;;4.49;100.00;94782.59;4975441;28;20453;-88
2022/01/08 03:59:02;;;;;;;3.70;3.40;;;;;;;4.65;99.77;94775.53;4975948;28;20488;-90
2022/01/08 04:01:30;;;;;;;4.43;4.00;;;;;;;4.59;99.49;94778.50;4976055;28;20481;-89
2022/01/08 04:03:58;;;;;;;4.77;4.23;;;;;;;4.53;99.48;94773.69;4976097;28;20453;-91
2022/01/08 04:06:25;;;;;;;4.57;4.17;;;;;;;4.73;99.29;94770.66;4976110;28;20883;-90
2022/01/08 04:08:57;;;;;;;3.97;3.57;;;;;;;4.58;99.88;94771.63;4975609;28;20485;-89
2022/01/08 04:11:24;;;;;;;3.90;3.43;;;;;;;4.49;100.00;94765.25;4975517;28;20461;-90
2022/01/08 04:13:51;;;;;;;5.13;3.63;;;;;;;4.57;100.00;94755.19;4975628;28;20456;-90
2022/01/08 04:16:23;;;;;;;4.57;3.80;;;;;;;4.76;99.35;94764.44;4975728;28;20462;-90
2022/01/08 04:18:50;;;;;;;7.73;4.50;;;;;;;4.70;98.95;94765.66;4974972;28;20963;-90
2022/01/08 04:21:58;;;;;;;3.83;3.53;;;;;;;4.63;99.44;94765.22;4975193;28;20477;-89
2022/01/08 04:24:14;;;;;;;4.83;4.37;;;;;;;4.72;99.03;94768.16;4975098;28;20421;-90
2022/01/08 04:26:41;;;;;;;5.67;3.73;;;;;;;4.80;99.49;94769.34;4975458;28;20446;-90
2022/01/08 04:29:08;;;;;;;5.27;4.17;;;;;;;4.77;98.39;94761.72;5016538;28;20488;-90
2022/01/08 04:31:35;;;;;;;3.93;3.63;;;;;;;4.77;98.68;94761.72;5035933;28;20451;-90
2022/01/08 04:34:02;;;;;;;5.80;4.43;;;;;;;4.90;98.91;94765.19;5035826;28;20456;-90
2022/01/08 04:36:30;;;;;;;5.20;4.40;;;;;;;4.98;97.96;94770.75;5036288;28;20462;-96
2022/01/08 04:38:59;;;;;;;4.17;3.77;;;;;;;5.00;97.97;94772.41;5036832;28;20558;-91
2022/01/08 04:41:26;;;;;;;6.10;4.73;;;;;;;4.89;98.75;94768.72;5035615;28;20489;-92
2022/01/08 04:43:53;;;;;;;5.50;3.80;;;;;;;4.89;98.32;94768.72;5035845;28;20553;-92
2022/01/08 04:46:20;;;;;;;6.47;5.13;;;;;;;4.83;98.69;94766.53;5036074;28;20438;-92
2022/01/08 04:48:47;;;;;;;5.00;4.30;;;;;;;4.91;99.02;94769.47;5036135;28;20457;-93
2022/01/08 04:51:14;;;;;;;4.63;3.77;;;;;;;5.03;98.17;94761.81;5035438;28;20462;-91
2022/01/08 04:53:42;;;;;;;3.60;3.30;;;;;;;4.98;97.83;94765.56;5035967;28;20447;-89
2022/01/08 04:56:09;;;;;;;4.17;3.77;;;;;;;4.85;98.05;94769.88;5034783;28;20446;-89
2022/01/08 04:58:36;;;;;;;4.67;3.80;;;;;;;4.85;99.17;94764.66;5035370;28;20459;-90
2022/01/08 05:01:03;;;;;;;3.53;3.23;;;;;;;4.94;98.75;94758.91;5017025;28;20458;-90
2022/01/08 05:03:30;;;;;;;2.50;2.30;;;;;;;4.89;97.35;94755.72;5035429;28;20449;-89
2022/01/08 05:05:57;;;;;;;3.00;2.80;;;;;;;5.01;97.13;94759.31;5034851;28;20448;-90
2022/01/08 05:08:24;;;;;;;2.90;2.70;;;;;;;5.09;96.99;94753.59;5034847;28;20435;-90
2022/01/08 05:10:52;;;;;;;2.60;2.40;;;;;;;5.22;97.06;94752.72;5035087;28;20439;-91
2022/01/08 05:13:19;;;;;;;5.20;3.23;;;;;;;5.33;96.66;94761.56;5035716;28;20473;-91
2022/01/08 05:15:46;;;;;;;3.97;3.57;;;;;;;5.36;95.98;94764.78;5034639;28;20976;-88
2022/01/08 05:18:13;;;;;;;8.50;3.40;;;;;;;5.35;95.46;94759.69;5035019;28;20459;-90
2022/01/08 05:20:44;;;;;;;3.17;2.77;;;;;;;5.41;96.03;94761.88;5035306;28;20492;-93
2022/01/08 05:23:11;;;;;;;3.97;3.57;;;;;;;5.17;96.44;94753.94;5036749;28;20478;-92
2022/01/08 05:25:39;;;;;;;4.40;2.70;;;;;;;5.32;96.59;94757.31;5036255;28;20447;-92
2022/01/08 05:28:07;;;;;;;3.53;3.20;;;;;;;5.41;96.06;94754.91;5035743;28;20464;-93
2022/01/08 05:30:34;;;;;;;2.57;2.37;;;;;;;5.42;95.43;94760.94;5036949;28;20459;-96
2022/01/08 05:33:01;;;;;;;3.67;3.37;;;;;;;5.33;96.47;94754.59;5035569;28;20500;-90
2022/01/08 05:35:29;;;;;;;2.50;2.30;;;;;;;5.25;96.57;94759.47;5035547;28;20444;-93
2022/01/08 05:37:57;;;;;;;3.70;3.17;;;;;;;5.08;97.20;94747.56;5035297;28;20461;-90
2022/01/08 05:40:25;;;;;;;3.00;2.70;;;;;;;5.22;97.31;94750.13;5034993;28;20455;-89
2022/01/08 05:42:53;;;;;;;2.70;2.37;;;;;;;5.21;96.83;94748.44;5034857;28;20486;-90
2022/01/08 05:45:21;;;;;;;3.43;3.07;;;;;;;5.18;97.51;94753.00;5034578;28;20462;-91
2022/01/08 05:47:48;;;;;;;3.40;3.10;;;;;;;5.34;97.05;94745.84;5034818;28;20454;-94
2022/01/08 05:50:15;;;;;;;3.27;2.60;;;;;;;5.44;96.55;94746.91;5034571;28;20458;-88
2022/01/08 05:52:42;;;;;;;3.80;3.23;;;;;;;5.55;95.89;94747.03;5039315;28;20451;-86
2022/01/08 05:55:10;;;;;;;6.67;4.17;;;;;;;5.57;95.10;94737.34;5041014;28;20464;-91
2022/01/08 05:57:38;;;;;;;3.37;3.10;;;;;;;5.63;95.02;94748.28;5039863;28;20972;-94
2022/01/08 06:00:07;;;;;;;7.00;5.00;;;;;;;5.54;94.38;94734.97;5039854;28;21093;-93
2022/01/08 06:02:36;;;;;;;6.15;5.05;;;;;;;5.68;94.77;94731.41;5039667;28;20475;-92
2022/01/08 06:05:03;;;;;;;4.73;2.90;;;;;;;5.73;93.54;94739.72;5048070;28;20218;-93
2022/01/08 06:07:31;;;;;;;6.23;3.77;;;;;;;5.45;94.47;94742.53;5050649;28;20479;-95
2022/01/08 06:09:58;;;;;;;6.33;4.30;;;;;;;5.54;94.49;94737.56;5049889;28;20515;-94
2022/01/08 06:12:25;;;;;;;12.20;3.90;;;;;;;5.46;95.05;94734.63;5051503;28;20454;-93
2022/01/08 06:14:52;;;;;;;3.33;3.03;;;;;;;5.31;95.46;94727.03;5050319;28;20526;-93
2022/01/08 06:17:19;;;;;;;7.07;2.90;;;;;;;5.26;95.83;94745.53;5048521;28;20463;-93
2022/01/08 06:19:48;;;;;;;3.00;2.80;;;;;;;5.26;95.99;94745.53;5048718;28;20553;-94
2022/01/08 06:22:16;;;;;;;3.43;3.10;;;;;;;5.33;96.09;94739.00;5048317;28;20528;-93
2022/01/08 06:24:43;;;;;;;3.67;3.33;;;;;;;5.44;96.02;94746.06;5049065;28;20465;-93
2022/01/08 06:27:10;;;;;;;3.00;2.53;;;;;;;5.29;95.77;94734.94;5045113;28;20446;-92
2022/01/08 06:29:37;;;;;;;8.27;3.90;;;;;;;5.21;97.39;94734.63;5044528;28;20461;-91
2022/01/08 06:32:05;;;;;;;5.60;4.23;;;;;;;5.30;97.18;94739.19;5046047;28;20448;-93
2022/01/08 06:34:32;;;;;;;4.77;3.60;;;;;;;5.15;97.83;94741.03;5044571;28;20470;-94
2022/01/08 06:37:01;;;;;;;8.40;4.77;;;;;;;5.22;97.61;94741.47;5043354;28;20452;-92
2022/01/08 06:39:28;;;;;;;6.97;2.73;;;;;;;5.28;97.29;94741.06;5044695;28;20521;-93
2022/01/08 06:41:55;;;;;;;3.23;2.93;;;;;;;5.21;98.31;94739.81;5047982;28;20477;-93
2022/01/08 06:44:22;;;;;;;5.20;3.30;;;;;;;5.14;98.69;94735.94;5046551;28;20447;-93
2022/01/08 06:46:49;;;;;;;4.40;3.37;;;;;;;5.18;98.32;94732.19;5045369;28;20454;-94
2022/01/08 06:49:16;;;;;;;5.80;3.60;;;;;;;5.23;99.35;94738.78;5043445;28;20457;-92
2022/01/08 06:51:43;;;;;;;2.93;2.50;;;;;;;5.28;98.53;94735.88;5039070;28;20447;-93
2022/01/08 06:54:12;;;;;;;3.20;2.90;;;;;;;5.36;98.73;94732.75;5042089;28;20562;-92
2022/01/08 06:56:39;;;;;;;3.37;2.77;;;;;;;5.37;98.08;94737.00;5042584;28;20454;-93
2022/01/08 06:59:06;;;;;;;3.67;3.23;;;;;;;5.36;98.32;94737.94;5042986;28;20479;-92
2022/01/08 07:01:33;;;;;;;2.93;2.60;;;;;;;5.25;98.60;94734.31;5045477;28;21262;-93
2022/01/08 07:04:01;;;;;;;3.60;3.00;;;;;;;5.15;99.34;94735.00;5044249;28;20532;-92
2022/01/08 07:06:28;;;;;;;2.97;2.77;;;;;;;5.07;99.46;94738.09;5044211;28;20458;-91
2022/01/08 07:08:55;;;;;;;7.10;4.37;;;;;;;5.10;99.87;94739.66;5044830;28;20542;-93
2022/01/08 07:11:24;;;;;;;6.50;4.13;;;;;;;5.13;99.18;94734.25;5043987;28;20456;-93
2022/01/08 07:13:51;;;;;;;4.00;3.30;;;;;;;5.20;99.02;94733.78;5043624;28;20447;-93
2022/01/08 07:16:19;;;;;;;4.10;3.40;;;;;;;5.09;99.74;94730.22;5043519;28;20507;-93
2022/01/08 07:18:46;;;;;;;3.90;3.37;;;;;;;5.00;100.00;94736.03;5045846;28;20833;-94
2022/01/08 07:21:13;;;;;;;5.23;4.73;;;;;;;5.12;100.00;94733.44;5043166;28;20947;-93
2022/01/08 07:23:40;;;;;;;4.90;4.17;;;;;;;5.10;100.00;94734.47;5042760;28;20521;-92
2022/01/08 07:26:07;;;;;;;3.43;3.13;;;;;;;5.05;100.00;94724.38;5042453;28;20454;-93
2022/01/08 07:28:38;;;;;;;5.90;4.77;;;;;;;5.11;100.00;94725.72;5041738;28;20467;-92
2022/01/08 07:31:05;;;;;;;4.10;3.13;;;;;;;5.16;100.00;94731.47;5044979;28;20456;-94
2022/01/08 07:33:32;;;;;;;4.40;4.00;;;;;;;5.24;100.00;94711.00;5042202;28;20468;-93
2022/01/08 07:35:59;;;;;;;3.23;2.93;;;;;;;5.38;98.73;94721.28;5041273;28;20447;-93
2022/01/08 07:38:26;;;;;;;3.87;3.57;;;;;;;5.40;98.62;94734.19;5040090;28;20967;-93
2022/01/08 07:40:53;;;;;;;8.47;3.90;;;;;;;5.48;98.24;94722.34;5039414;28;20451;-91
2022/01/08 07:43:21;;;;;;;3.70;3.40;;;;;;;5.46;98.16;94718.16;5040543;28;20475;-93
2022/01/08 07:45:50;;;;;;;4.40;2.10;;;;;;;5.31;98.79;94735.66;5041969;28;20527;-92
2022/01/08 07:48:17;;;;;;;5.77;4.43;;;;;;;5.38;98.44;94725.66;5037353;28;20451;-93
2022/01/08 07:50:44;;;;;;;2.80;1.97;;;;;;;5.26;99.01;94725.56;5040670;28;20537;-92
2022/01/08 07:53:11;;;;;;;2.70;2.40;;;;;;;5.31;99.30;94722.66;5038826;28;20550;-94
2022/01/08 07:55:38;;;;;;;4.63;2.90;;;;;;;5.24;98.79;94730.03;5039963;28;20456;-93
2022/01/08 07:58:05;;;;;;;3.60;2.80;;;;;;;5.29;99.03;94727.13;5042233;28;20471;-92
2022/01/08 08:00:32;;;;;;;10.30;3.60;;;;;;;5.33;98.48;94725.97;5040688;28;20525;-94
2022/01/08 08:03:01;;;;;;;3.73;2.73;;;;;;;5.37;98.51;94721.41;5037763;28;20578;-92
2022/01/08 08:05:28;;;;;;;21.43;10.40;;;;;;;5.41;98.73;94723.69;5039318;28;20455;-93
2022/01/08 08:07:55;;;;;;;12.33;7.10;;;;;;;5.32;98.54;94724.31;5038595;28;20458;-92
2022/01/08 08:10:25;;;;;;;38.10;18.70;;;;;;;5.38;98.34;94720.47;5040155;28;20462;-92
2022/01/08 08:12:53;;;;;;;23.77;14.50;;;;;;;5.35;97.64;94721.50;5038922;28;20466;-93
2022/01/08 08:15:20;;;;;;;7.90;6.03;;;;;;;5.32;98.22;94713.91;5038116;28;20871;-96
2022/01/08 08:17:48;;;;;;;12.53;8.63;;;;;;;5.43;97.36;94711.41;5039641;28;21024;-95
2022/01/08 08:20:17;;;;;;;4.40;3.43;;;;;;;5.50;97.17;94715.28;5036241;28;20479;-94
2022/01/08 08:22:44;;;;;;;3.73;2.97;;;;;;;5.57;96.29;94720.91;5038765;28;20485;-92
2022/01/08 08:25:14;;;;;;;6.97;3.80;;;;;;;5.62;96.64;94716.22;5038626;28;20462;-93
2022/01/08 08:27:42;;;;;;;7.50;6.77;;;;;;;5.52;96.26;94707.38;5038520;28;20455;-93
2022/01/08 08:30:10;;;;;;;10.80;7.63;;;;;;;5.66;96.24;94703.81;5038189;28;20526;-94
2022/01/08 08:32:38;;;;;;;6.30;4.93;;;;;;;5.73;96.53;94699.84;5037489;28;20832;-90
2022/01/08 08:35:06;;;;;;;8.73;6.17;;;;;;;5.56;96.24;94698.41;5037599;28;20453;-93
2022/01/08 08:37:37;;;;;;;18.80;5.80;;;;;;;5.72;95.58;94698.19;5037849;28;20485;-94
2022/01/08 08:40:05;;;;;;;5.03;3.07;;;;;;;5.67;95.53;94702.88;5038694;28;20462;-91
2022/01/08 08:42:32;;;;;;;5.67;4.73;;;;;;;5.48;96.63;94705.88;5038084;28;20489;-93
2022/01/08 08:44:59;;;;;;;6.10;5.00;;;;;;;5.52;96.74;94692.59;5038111;28;20449;-91
2022/01/08 08:47:27;;;;;;;11.40;6.10;;;;;;;5.64;96.85;94701.31;5039216;28;20450;-93
2022/01/08 08:49:54;;;;;;;6.57;4.50;;;;;;;5.51;96.68;94690.94;5039195;28;21023;-93
2022/01/08 08:52:23;;;;;;;7.00;4.30;;;;;;;5.45;98.05;94693.91;5037752;28;20457;-90
2022/01/08 08:54:52;;;;;;;5.47;4.07;;;;;;;5.42;98.22;94699.34;5036074;28;20454;-90
2022/01/08 08:57:19;;;;;;;6.10;4.67;;;;;;;5.51;97.17;94696.13;5036767;28;20465;-92
2022/01/08 08:59:47;;;;;;;4.47;3.83;;;;;;;5.54;97.81;94676.88;5037232;28;20479;-93
2022/01/08 09:02:14;;;;;;;7.47;5.80;;;;;;;5.55;97.42;94687.16;5037989;28;20466;-92
2022/01/08 09:04:41;;;;;;;9.50;5.60;;;;;;;5.75;96.84;94684.94;5035678;28;20459;-93
2022/01/08 09:07:09;;;;;;;9.70;6.20;;;;;;;5.70;96.05;94681.84;5035667;28;20524;-93
2022/01/08 09:09:36;;;;;;;4.00;3.60;;;;;;;5.65;96.79;94673.50;5036525;28;21119;-91
2022/01/08 09:12:05;;;;;;;2.90;2.40;;;;;;;5.64;96.75;94671.84;5036088;28;20546;-92
2022/01/08 09:14:32;;;;;;;4.67;4.27;;;;;;;5.73;96.02;94663.41;5036891;28;20459;-91
2022/01/08 09:17:04;;;;;;;7.10;4.93;;;;;;;5.73;96.60;94658.19;5050304;28;20424;-86
2022/01/08 09:19:33;;;;;;;7.40;5.50;;;;;;;5.59;96.74;94657.38;5057494;28;20448;-90
2022/01/08 09:22:01;;;;;;;4.67;4.10;;;;;;;5.59;97.42;94657.38;5049809;28;20483;-91
2022/01/08 09:24:28;;;;;;;3.90;3.53;;;;;;;5.57;96.84;94655.84;5045071;28;20482;-89
2022/01/08 09:26:55;;;;;;;3.73;3.43;;;;;;;5.47;97.45;94658.22;5045490;28;20453;-91
2022/01/08 09:29:24;;;;;;;3.13;2.83;;;;;;;5.63;97.48;94650.19;5045104;28;20466;-89
2022/01/08 09:31:51;;;;;;;7.10;5.63;;;;;;;5.74;96.54;94650.28;5042670;28;20853;-91
2022/01/08 09:34:19;;;;;;;4.83;4.37;;;;;;;5.67;96.49;94643.00;5036259;28;20452;-91
2022/01/08 09:36:47;;;;;;;4.57;3.30;;;;;;;5.70;95.96;94643.63;5038518;28;20502;-91
2022/01/08 09:39:15;;;;;;;3.77;3.47;;;;;;;5.75;96.42;94635.47;5038256;28;20451;-92
2022/01/08 09:41:42;;;;;;;3.53;2.90;;;;;;;5.77;96.39;94633.59;5037976;28;20450;-92
2022/01/08 09:44:09;;;;;;;5.37;4.40;;;;;;;5.74;95.94;94633.81;5037393;28;20483;-92
2022/01/08 09:46:38;;;;;;;4.90;3.50;;;;;;;5.70;96.40;94630.59;5036711;28;20463;-91
2022/01/08 09:49:05;;;;;;;3.37;3.17;;;;;;;5.77;96.44;94624.03;5037332;28;20480;-93
2022/01/08 09:51:32;;;;;;;5.63;5.07;;;;;;;5.68;97.00;94629.06;5038171;28;20543;-92
2022/01/08 09:54:00;;;;;;;2.80;2.60;;;;;;;5.83;95.94;94626.22;5037528;28;20474;-92
2022/01/08 09:56:29;;;;;;;3.30;3.10;;;;;;;5.86;95.85;94623.41;5035599;28;20449;-91
2022/01/08 09:58:57;;;;;;;6.50;3.83;;;;;;;6.04;96.11;94621.28;5034094;28;20479;-93
2022/01/08 10:01:28;;;;;;;4.33;3.50;;;;;;;5.94;95.22;94624.66;5037747;28;20455;-91
2022/01/08 10:04:17;;;;;;;6.43;4.77;;;;;;;5.74;95.56;94628.63;5040276;28;20998;-91
2022/01/08 10:06:44;;;;;;;56.83;27.80;;;;;;;5.75;97.13;94617.25;5015027;28;20548;-92
2022/01/08 10:09:11;;;;;;;6.13;5.50;;;;;;;5.77;96.49;94608.41;5014942;28;20458;-91
2022/01/08 10:11:40;;;;;;;8.23;7.27;;;;;;;5.81;96.18;94609.03;5014182;28;20460;-92
2022/01/08 10:14:15;;;;;;;6.53;5.07;;;;;;;5.77;96.21;94604.97;5015306;28;20452;-91
2022/01/08 10:19:31;;;;;;;3.90;3.60;;;;;;;5.83;96.77;94601.94;5017949;28;20468;-93
2022/01/08 10:21:58;;;;;;;4.43;3.90;;;;;;;5.78;96.41;94591.88;5015331;28;20449;-93
2022/01/08 10:24:28;;;;;;;5.27;3.43;;;;;;;5.90;96.26;94598.00;5022084;28;20989;-91
2022/01/08 10:27:02;;;;;;;6.17;5.20;;;;;;;5.84;96.51;94591.44;5038518;28;20448;-92
2022/01/08 10:29:29;;;;;;;4.00;3.70;;;;;;;5.77;96.74;94586.75;5038450;28;20530;-93
2022/01/08 10:31:56;;;;;;;6.20;4.50;;;;;;;5.65;98.20;94585.84;5040871;28;20543;-91
2022/01/08 10:34:25;;;;;;;6.23;5.60;;;;;;;5.63;98.53;94584.28;5040036;28;20454;-92
2022/01/08 10:37:01;;;;;;;4.80;4.37;;;;;;;5.57;98.77;94576.00;5040714;28;20472;-90
2022/01/08 10:39:31;;;;;;;5.00;4.43;;;;;;;5.58;99.07;94575.03;5041747;28;20486;-92
2022/01/08 10:41:59;;;;;;;4.93;4.53;;;;;;;5.69;99.18;94566.47;5040453;28;20871;-93
2022/01/08 10:44:27;;;;;;;3.80;3.50;;;;;;;5.75;97.75;94570.41;5039839;28;20489;-93
2022/01/08 10:47:00;;;;;;;7.40;5.60;;;;;;;5.84;97.60;94568.00;5039797;28;20462;-94
2022/01/08 10:49:32;;;;;;;8.40;7.00;;;;;;;5.93;96.24;94553.50;5040077;28;20448;-92
2022/01/08 10:52:02;;;;;;;56.33;29.80;;;;;;;5.96;97.31;94561.09;5039944;28;20461;-93
2022/01/08 10:54:31;;;;;;;9.10;6.37;;;;;;;6.09;96.03;94555.84;5038778;28;20538;-92
2022/01/08 10:57:01;;;;;;;26.00;16.33;;;;;;;6.12;96.30;94547.81;5040362;28;20451;-93
2022/01/08 10:59:32;;;;;;;13.00;9.13;;;;;;;6.01;95.43;94545.97;5041167;28;20571;-94
2022/01/08 11:02:02;;;;;;;5.70;5.20;;;;;;;6.16;95.30;94544.88;5042777;28;20474;-92
2022/01/08 11:04:39;;;;;;;10.00;5.07;;;;;;;6.32;95.49;94538.50;5037498;28;20517;-94
2022/01/08 11:07:09;;;;;;;13.83;5.30;;;;;;;6.46;94.57;94540.94;5037850;28;20847;-93
2022/01/08 11:09:37;;;;;;;7.37;5.30;;;;;;;6.40;94.10;94536.19;5039128;28;20466;-93
2022/01/08 11:12:07;;;;;;;14.10;5.77;;;;;;;6.38;93.90;94540.69;5039098;28;20452;-94
2022/01/08 11:14:48;;;;;;;4.57;4.07;;;;;;;6.11;94.66;94549.59;5042611;28;20466;-90
2022/01/08 11:17:18;;;;;;;5.70;4.70;;;;;;;5.95;95.77;94536.00;5042603;28;20498;-92
2022/01/08 11:19:48;;;;;;;6.07;5.43;;;;;;;5.82;96.75;94533.44;5043444;28;20452;-90
2022/01/08 11:22:22;;;;;;;6.50;5.57;;;;;;;5.77;96.92;94519.88;5042492;28;20448;-92
2022/01/08 11:24:54;;;;;;;5.03;4.57;;;;;;;5.85;95.68;94527.16;5044802;28;20494;-93
2022/01/08 11:27:24;;;;;;;4.40;4.00;;;;;;;5.86;96.52;94528.81;5042837;28;20459;-90
2022/01/08 11:30:04;;;;;;;9.50;7.70;;;;;;;5.94;96.08;94516.09;5039813;28;20454;-91
2022/01/08 11:32:31;;;;;;;5.43;4.50;;;;;;;6.02;95.96;94521.59;5040106;28;20455;-93
2022/01/08 11:34:59;;;;;;;5.43;4.93;;;;;;;6.01;96.15;94519.09;5042495;28;20447;-91
2022/01/08 11:37:27;;;;;;;5.47;4.93;;;;;;;6.11;94.96;94512.28;5038212;28;20450;-93
2022/01/08 11:39:55;;;;;;;5.43;4.93;;;;;;;6.05;95.48;94515.31;5004707;28;20443;-93
2022/01/08 11:42:23;;;;;;;9.70;8.70;;;;;;;6.26;94.82;94513.75;5037048;28;20835;-93
2022/01/08 11:44:53;;;;;;;6.83;6.20;;;;;;;6.32;94.62;94510.69;5036645;28;20548;-92
2022/01/08 11:47:22;;;;;;;9.73;8.07;;;;;;;6.46;94.21;94512.28;5037291;28;20480;-90
2022/01/08 11:49:50;;;;;;;17.47;13.47;;;;;;;6.56;92.91;94508.03;5036117;28;20461;-91
2022/01/08 11:52:19;;;;;;;14.37;9.10;;;;;;;6.62;92.91;94502.34;5036805;28;20553;-89
2022/01/08 11:54:49;;;;;;;13.20;10.30;;;;;;;6.54;92.79;94496.88;5038219;28;20445;-92
2022/01/08 11:57:21;;;;;;;10.63;7.97;;;;;;;6.53;93.40;94497.81;5039873;28;20462;-93
2022/01/08 11:59:49;;;;;;;8.93;7.10;;;;;;;6.40;93.05;94491.88;5042331;28;20473;-93
2022/01/08 12:02:16;;;;;;;7.20;5.90;;;;;;;6.35;93.67;94494.81;5041773;28;20465;-92
2022/01/08 12:04:47;;;;;;;13.87;7.97;;;;;;;6.36;94.33;94491.28;5037490;28;20488;-91
2022/01/08 12:07:36;;;;;;;12.80;7.40;;;;;;;6.27;94.59;94491.13;5041020;28;20528;-88
2022/01/08 12:10:19;;;;;;;24.40;12.03;;;;;;;6.14;95.72;94491.22;5040855;28;20449;-92
2022/01/08 12:12:53;;;;;;;54.87;26.37;;;;;;;5.91;96.24;94485.09;5041779;28;20938;-93
2022/01/08 12:15:48;;;;;;;21.00;12.60;;;;;;;5.89;97.19;94479.13;5041570;28;20512;-92
2022/01/08 12:18:18;;;;;;;29.83;15.60;;;;;;;5.74;97.29;94473.25;5040988;28;20441;-92
2022/01/08 12:20:48;;;;;;;73.57;37.83;;;;;;;5.84;97.36;94474.25;5039980;28;20459;-91
2022/01/08 12:23:36;;;;;;;12.33;9.37;;;;;;;5.80;97.07;94482.41;5039263;28;20455;-90
2022/01/08 12:26:09;;;;;;;37.93;27.13;;;;;;;5.79;97.65;94476.38;5040233;28;20462;-91
2022/01/08 12:28:58;;;;;;;14.07;12.43;;;;;;;5.78;98.50;94477.31;5040172;28;20538;-93
2022/01/08 12:31:36;;;;;;;9.03;7.30;;;;;;;5.85;98.24;94472.50;5039759;28;20491;-93
2022/01/08 12:34:20;;;;;;;8.97;7.07;;;;;;;5.82;97.37;94477.94;5040443;28;20446;-90
2022/01/08 12:36:55;;;;;;;6.80;5.60;;;;;;;5.78;98.45;94476.47;5040178;28;20462;-93